You are not logged in, Click here to log in
法蘭克福機場FRA / EDDF 德國黑森邦法蘭克福
ICAO: EDDF Country: 德國黑森邦法蘭克福
Latitude: 50.0264 Longitude: 8.54313
Total Arrivals: 39 Total Departures: 42
Latest Arrival: OS123 (LOWW-EDDF)Lun. Wang Latest Departure: LH1410 (EDDF-LYBE)Lun. Wang
Scenery:
METAR : EDDF 031720Z 01007KT 340V050 9999 -SHRA SCT048CB 19/17 Q1010 NOSIG

法蘭克福機場FRA

You are accessing this site from IP address 34.200.243.114. Virtual Airline. CMS by phpVMS.Website designed by Zumeweb and edited by Theo Bearman.
There is 0 User(s) Online: | and 12 Guest(s) Online.
All information on this site is for fight simulation purposes only. This site is for flight logging for pilots of Virtual Airline&模擬飛行論壇 FlySim only.